createdAt,value
2022-10-12T00:00:41.216Z,0.00
2022-10-12T00:01:41.206Z,0.00
2022-10-12T00:02:41.169Z,0.00
2022-10-12T00:03:41.147Z,0.00
2022-10-12T00:04:41.143Z,0.00
2022-10-12T00:05:41.120Z,0.00
2022-10-12T00:06:41.106Z,0.00
2022-10-12T00:07:41.252Z,0.00
2022-10-12T00:08:41.082Z,0.00
2022-10-12T00:09:41.067Z,0.00
2022-10-12T00:10:41.064Z,0.00
2022-10-12T00:11:41.043Z,0.00
2022-10-12T00:12:41.027Z,0.00
2022-10-12T00:13:41.012Z,0.00
2022-10-12T00:14:41.001Z,0.00
2022-10-12T00:15:40.984Z,0.00
2022-10-12T00:16:40.996Z,0.00
2022-10-12T00:17:40.954Z,0.00
2022-10-12T00:18:40.950Z,0.00
2022-10-12T00:19:41.181Z,0.00
2022-10-12T00:20:40.923Z,0.00
2022-10-12T00:21:40.910Z,0.00
2022-10-12T00:22:40.895Z,0.00
2022-10-12T00:23:40.878Z,0.00
2022-10-12T00:24:42.955Z,0.00
2022-10-12T00:25:40.848Z,0.00
2022-10-12T00:26:40.839Z,0.00
2022-10-12T00:27:40.817Z,0.00
2022-10-12T00:28:40.892Z,0.00
2022-10-12T00:29:40.790Z,0.00
2022-10-12T00:30:40.787Z,0.00
2022-10-12T00:31:40.784Z,0.00
2022-10-12T00:32:40.874Z,0.00
2022-10-12T00:33:40.745Z,0.00
2022-10-12T00:34:40.729Z,0.00
2022-10-12T00:35:40.713Z,0.00
2022-10-12T00:36:40.704Z,0.00
2022-10-12T00:37:40.689Z,0.00
2022-10-12T00:38:40.675Z,0.00
2022-10-12T00:39:40.654Z,0.00
2022-10-12T00:40:40.646Z,0.00
2022-10-12T00:41:40.627Z,0.00
2022-10-12T00:42:40.619Z,0.00
2022-10-12T00:43:40.605Z,0.00
2022-10-12T00:44:40.599Z,0.00
2022-10-12T00:45:40.580Z,0.00
2022-10-12T00:46:40.565Z,0.00
2022-10-12T00:47:41.086Z,0.00
2022-10-12T00:48:40.561Z,0.00
2022-10-12T00:49:40.525Z,0.00
2022-10-12T00:50:40.510Z,0.00
2022-10-12T00:51:40.496Z,0.00
2022-10-12T00:52:40.478Z,0.00
2022-10-12T00:53:40.465Z,0.00
2022-10-12T00:54:40.453Z,0.00
2022-10-12T00:55:40.436Z,0.00
2022-10-12T00:56:40.427Z,0.00
2022-10-12T00:57:45.940Z,0.00
2022-10-12T00:58:41.423Z,0.00
2022-10-12T00:59:40.385Z,0.00
2022-10-12T01:00:40.414Z,0.00
2022-10-12T01:01:40.359Z,0.00
2022-10-12T01:02:40.351Z,0.00
2022-10-12T01:03:40.334Z,0.00
2022-10-12T01:04:40.345Z,0.00
2022-10-12T01:05:40.311Z,0.00
2022-10-12T01:06:40.297Z,0.00
2022-10-12T01:07:40.671Z,0.00
2022-10-12T01:08:40.264Z,0.00
2022-10-12T01:09:40.247Z,0.00
2022-10-12T01:10:40.238Z,0.00
2022-10-12T01:11:40.226Z,0.00
2022-10-12T01:12:40.213Z,0.00
2022-10-12T01:13:40.198Z,0.00
2022-10-12T01:14:40.190Z,0.00
2022-10-12T01:15:40.167Z,0.00
2022-10-12T01:16:40.162Z,0.00
2022-10-12T01:17:40.368Z,0.00
2022-10-12T01:18:40.133Z,0.00
2022-10-12T01:19:40.113Z,0.00
2022-10-12T01:20:40.143Z,0.00
2022-10-12T01:21:40.087Z,0.00
2022-10-12T01:22:40.076Z,0.00
2022-10-12T01:23:40.065Z,0.00
2022-10-12T01:24:40.055Z,0.00
2022-10-12T01:25:40.040Z,0.00
2022-10-12T01:26:40.030Z,0.00
2022-10-12T01:27:40.497Z,0.00
2022-10-12T01:28:40.133Z,0.00
2022-10-12T01:29:39.983Z,0.00
2022-10-12T01:30:39.979Z,0.00
2022-10-12T01:31:39.969Z,0.00
2022-10-12T01:32:39.945Z,0.00
2022-10-12T01:33:39.927Z,0.00
2022-10-12T01:34:39.919Z,0.00
2022-10-12T01:35:39.901Z,0.00
2022-10-12T01:36:39.909Z,0.00
2022-10-12T01:37:40.344Z,0.00
2022-10-12T01:38:39.868Z,0.00
2022-10-12T01:39:39.851Z,0.00
2022-10-12T01:40:39.846Z,0.00
2022-10-12T01:41:39.822Z,0.00
2022-10-12T01:42:39.814Z,0.00
2022-10-12T01:43:39.801Z,0.00
2022-10-12T01:44:42.838Z,0.00
2022-10-12T01:45:39.775Z,0.00
2022-10-12T01:46:39.761Z,0.00
2022-10-12T01:47:40.240Z,0.00
2022-10-12T01:48:39.726Z,0.00
2022-10-12T01:49:39.722Z,0.00
2022-10-12T01:50:39.699Z,0.00
2022-10-12T01:51:39.692Z,0.00
2022-10-12T01:52:39.692Z,0.00
2022-10-12T01:53:39.660Z,0.00
2022-10-12T01:54:39.644Z,0.00
2022-10-12T01:55:39.647Z,0.00
2022-10-12T01:56:39.621Z,0.00
2022-10-12T01:57:40.237Z,0.00
2022-10-12T01:58:39.595Z,0.00
2022-10-12T01:59:39.585Z,0.00
2022-10-12T02:00:39.590Z,0.00
2022-10-12T02:01:39.609Z,0.00
2022-10-12T02:02:39.539Z,0.00
2022-10-12T02:03:39.526Z,0.00
2022-10-12T02:04:39.508Z,0.00
2022-10-12T02:05:39.550Z,0.00
2022-10-12T02:06:39.491Z,0.00
2022-10-12T02:07:39.909Z,0.00
2022-10-12T02:08:39.478Z,0.00
2022-10-12T02:09:39.449Z,0.00
2022-10-12T02:10:39.426Z,0.00
2022-10-12T02:11:39.425Z,0.00
2022-10-12T02:12:39.407Z,0.00
2022-10-12T02:13:39.498Z,0.00
2022-10-12T02:14:39.376Z,0.00
2022-10-12T02:15:39.360Z,0.00
2022-10-12T02:16:39.350Z,0.00
2022-10-12T02:17:39.796Z,0.00
2022-10-12T02:18:39.318Z,0.00
2022-10-12T02:19:39.314Z,0.00
2022-10-12T02:20:39.305Z,0.00
2022-10-12T02:21:39.286Z,0.00
2022-10-12T02:22:39.268Z,0.00
2022-10-12T02:23:39.260Z,0.00
2022-10-12T02:24:39.462Z,0.00
2022-10-12T02:25:39.241Z,0.00
2022-10-12T02:26:39.215Z,0.00
2022-10-12T02:27:39.673Z,0.00
2022-10-12T02:28:39.282Z,0.00
2022-10-12T02:29:39.177Z,0.00
2022-10-12T02:30:39.156Z,0.00
2022-10-12T02:31:39.152Z,0.00
2022-10-12T02:32:39.130Z,0.00
2022-10-12T02:33:39.119Z,0.00
2022-10-12T02:34:39.255Z,0.00
2022-10-12T02:35:39.100Z,0.00
2022-10-12T02:36:39.078Z,0.00
2022-10-12T02:37:39.444Z,0.00
2022-10-12T02:38:39.058Z,0.00
2022-10-12T02:39:39.044Z,0.00
2022-10-12T02:40:39.065Z,0.00
2022-10-12T02:41:39.014Z,0.00
2022-10-12T02:43:08.376Z,0.00
2022-10-12T02:43:40.008Z,0.00
2022-10-12T02:44:38.968Z,0.00
2022-10-12T02:45:38.960Z,0.00
2022-10-12T02:46:38.936Z,0.00
2022-10-12T02:47:39.304Z,0.00
2022-10-12T02:48:38.922Z,0.00
2022-10-12T02:49:38.908Z,0.00
2022-10-12T02:50:38.898Z,0.00
2022-10-12T02:51:38.874Z,0.00
2022-10-12T02:52:38.867Z,0.00
2022-10-12T02:53:38.845Z,0.00
2022-10-12T02:54:38.840Z,0.00
2022-10-12T02:55:38.818Z,0.00
2022-10-12T02:56:38.834Z,0.00
2022-10-12T02:57:39.255Z,0.00
2022-10-12T02:58:38.779Z,0.00
2022-10-12T02:59:38.767Z,0.00
2022-10-12T03:00:38.758Z,0.00
2022-10-12T03:01:38.852Z,0.00
2022-10-12T03:02:38.726Z,0.00
2022-10-12T03:03:38.713Z,0.00
2022-10-12T03:04:38.702Z,0.00
2022-10-12T03:05:38.686Z,0.00
2022-10-12T03:06:38.676Z,0.00
2022-10-12T03:07:38.985Z,0.00
2022-10-12T03:08:38.645Z,0.00
2022-10-12T03:09:38.625Z,0.00
2022-10-12T03:10:38.616Z,0.00
2022-10-12T03:11:38.599Z,0.00
2022-10-12T03:12:38.629Z,0.00
2022-10-12T03:13:38.580Z,0.00
2022-10-12T03:14:38.567Z,0.00
2022-10-12T03:15:38.548Z,0.00
2022-10-12T03:16:38.538Z,0.00
2022-10-12T03:17:38.875Z,0.00
2022-10-12T03:18:38.513Z,0.00
2022-10-12T03:19:38.496Z,0.00
2022-10-12T03:20:38.482Z,0.00
2022-10-12T03:21:38.465Z,0.00
2022-10-12T03:22:38.456Z,0.00
2022-10-12T03:23:38.447Z,0.00
2022-10-12T03:24:38.436Z,0.00
2022-10-12T03:25:38.414Z,0.00
2022-10-12T03:26:38.404Z,0.00
2022-10-12T03:27:38.665Z,0.00
2022-10-12T03:28:38.538Z,0.00
2022-10-12T03:29:38.361Z,0.00
2022-10-12T03:30:38.351Z,0.00
2022-10-12T03:31:38.329Z,0.00
2022-10-12T03:32:38.321Z,0.00
2022-10-12T03:33:38.304Z,0.00
2022-10-12T03:34:38.294Z,0.00
2022-10-12T03:35:38.276Z,0.00
2022-10-12T03:36:38.266Z,0.00
2022-10-12T03:37:38.520Z,0.00
2022-10-12T03:38:38.242Z,0.00
2022-10-12T03:39:38.229Z,0.00
2022-10-12T03:40:38.215Z,0.00
2022-10-12T03:41:38.205Z,0.00
2022-10-12T03:42:38.193Z,0.00
2022-10-12T03:43:38.173Z,0.00
2022-10-12T03:44:38.184Z,0.00
2022-10-12T03:45:38.149Z,0.00
2022-10-12T03:46:38.136Z,0.00
2022-10-12T03:47:38.440Z,0.00
2022-10-12T03:48:38.104Z,0.00
2022-10-12T03:49:38.090Z,0.00
2022-10-12T03:50:38.080Z,0.00
2022-10-12T03:51:38.066Z,0.00
2022-10-12T03:52:38.057Z,0.00
2022-10-12T03:53:41.765Z,0.00
2022-10-12T03:54:39.071Z,0.00
2022-10-12T03:55:38.010Z,0.00
2022-10-12T03:56:37.996Z,0.00
2022-10-12T03:57:38.329Z,0.00
2022-10-12T03:58:37.970Z,0.00
2022-10-12T03:59:37.954Z,0.00
2022-10-12T04:00:37.967Z,0.00
2022-10-12T04:01:38.017Z,0.00
2022-10-12T04:02:37.919Z,0.00
2022-10-12T04:03:37.902Z,0.00
2022-10-12T04:04:37.896Z,0.00
2022-10-12T04:05:37.879Z,0.00
2022-10-12T04:06:37.872Z,0.00
2022-10-12T04:07:38.274Z,0.00
2022-10-12T04:08:40.144Z,0.00
2022-10-12T04:09:37.828Z,0.00
2022-10-12T04:10:37.818Z,0.00
2022-10-12T04:11:37.793Z,0.00
2022-10-12T04:12:37.786Z,0.00
2022-10-12T04:13:37.764Z,0.00
2022-10-12T04:14:37.757Z,0.00
2022-10-12T04:15:37.739Z,0.00
2022-10-12T04:16:37.757Z,0.00
2022-10-12T04:17:38.175Z,0.00
2022-10-12T04:18:37.704Z,0.00
2022-10-12T04:19:37.692Z,0.00
2022-10-12T04:20:37.680Z,0.00
2022-10-12T04:21:37.660Z,0.00
2022-10-12T04:22:37.659Z,0.00
2022-10-12T04:23:37.631Z,0.00
2022-10-12T04:24:37.622Z,0.00
2022-10-12T04:25:37.607Z,0.00
2022-10-12T04:26:37.596Z,0.00
2022-10-12T04:27:37.825Z,0.00
2022-10-12T04:28:37.587Z,0.00
2022-10-12T04:29:37.554Z,0.00
2022-10-12T04:30:37.544Z,0.00
2022-10-12T04:31:37.526Z,0.00
2022-10-12T04:32:37.539Z,0.00
2022-10-12T04:33:37.511Z,0.00
2022-10-12T04:34:37.491Z,0.00
2022-10-12T04:35:37.474Z,0.00
2022-10-12T04:36:37.463Z,0.00
2022-10-12T04:37:37.875Z,0.00
2022-10-12T04:38:37.432Z,0.00
2022-10-12T04:39:37.414Z,0.00
2022-10-12T04:40:37.407Z,0.00
2022-10-12T04:41:37.401Z,0.00
2022-10-12T04:42:37.383Z,0.00
2022-10-12T04:43:37.360Z,0.00
2022-10-12T04:44:37.353Z,0.00
2022-10-12T04:45:37.333Z,0.00
2022-10-12T04:46:37.323Z,0.00
2022-10-12T04:47:37.623Z,0.00
2022-10-12T04:48:37.321Z,0.00
2022-10-12T04:49:37.282Z,0.00
2022-10-12T04:50:37.276Z,0.00
2022-10-12T04:51:37.254Z,0.00
2022-10-12T04:52:37.243Z,0.00
2022-10-12T04:53:37.227Z,0.00
2022-10-12T04:54:37.226Z,0.00
2022-10-12T04:55:37.204Z,0.00
2022-10-12T04:56:37.191Z,0.00
2022-10-12T04:57:37.519Z,0.00
2022-10-12T04:58:37.167Z,0.00
2022-10-12T04:59:37.147Z,0.00
2022-10-12T05:00:37.142Z,0.00
2022-10-12T05:01:37.161Z,0.00
2022-10-12T05:02:37.110Z,0.00
2022-10-12T05:03:41.645Z,0.00
2022-10-12T05:04:37.109Z,0.00
2022-10-12T05:05:37.068Z,0.00
2022-10-12T05:06:37.058Z,0.00
2022-10-12T05:07:37.427Z,0.00
2022-10-12T05:08:37.025Z,0.00
2022-10-12T05:09:37.010Z,0.00
2022-10-12T05:10:37.007Z,0.00
2022-10-12T05:11:36.986Z,0.00
2022-10-12T05:12:37.295Z,0.00
2022-10-12T05:13:36.960Z,0.00
2022-10-12T05:14:36.947Z,0.00
2022-10-12T05:15:36.934Z,4.00
2022-10-12T05:16:36.934Z,4.00
2022-10-12T05:17:37.212Z,0.00
2022-10-12T05:18:36.901Z,4.00
2022-10-12T05:19:36.882Z,4.00
2022-10-12T05:20:36.897Z,4.00
2022-10-12T05:21:36.855Z,4.00
2022-10-12T05:22:36.848Z,4.00
2022-10-12T05:23:36.829Z,12.00
2022-10-12T05:24:36.816Z,12.00
2022-10-12T05:25:36.803Z,12.00
2022-10-12T05:26:36.789Z,16.00
2022-10-12T05:27:37.129Z,16.00
2022-10-12T05:28:40.798Z,20.00
2022-10-12T05:29:36.742Z,20.00
2022-10-12T05:30:36.743Z,24.00
2022-10-12T05:31:36.718Z,32.00
2022-10-12T05:32:36.997Z,36.00
2022-10-12T05:33:36.688Z,36.00
2022-10-12T05:34:36.683Z,44.00
2022-10-12T05:35:36.661Z,48.00
2022-10-12T05:36:36.677Z,52.00
2022-10-12T05:37:36.967Z,60.00
2022-10-12T05:38:36.634Z,64.00
2022-10-12T05:39:36.610Z,68.00
2022-10-12T05:40:36.593Z,72.00
2022-10-12T05:41:36.588Z,80.00
2022-10-12T05:42:36.942Z,88.00
2022-10-12T05:43:36.562Z,100.00
2022-10-12T05:44:36.549Z,104.00
2022-10-12T05:45:36.536Z,112.00
2022-10-12T05:46:36.518Z,124.00
2022-10-12T05:47:36.864Z,136.00
2022-10-12T05:48:36.499Z,152.00
2022-10-12T05:49:36.479Z,164.00
2022-10-12T05:50:36.466Z,172.00
2022-10-12T05:51:36.449Z,188.00
2022-10-12T05:52:36.929Z,196.00
2022-10-12T05:53:36.423Z,208.00
2022-10-12T05:54:36.422Z,220.00
2022-10-12T05:55:36.394Z,232.00
2022-10-12T05:56:36.382Z,252.00
2022-10-12T05:57:36.366Z,272.00
2022-10-12T05:58:36.364Z,284.00
2022-10-12T05:59:36.342Z,292.00
2022-10-12T06:00:36.334Z,300.00
2022-10-12T06:01:36.393Z,308.00
2022-10-12T06:02:36.642Z,324.00
2022-10-12T06:03:36.297Z,344.00
2022-10-12T06:04:36.275Z,368.00
2022-10-12T06:05:36.264Z,392.00
2022-10-12T06:06:36.250Z,416.00
2022-10-12T06:07:36.238Z,432.00
2022-10-12T06:08:36.255Z,444.00
2022-10-12T06:09:36.216Z,464.00
2022-10-12T06:10:36.248Z,484.00
2022-10-12T06:11:36.580Z,504.00
2022-10-12T06:12:36.499Z,524.00
2022-10-12T06:13:36.152Z,536.00
2022-10-12T06:14:36.133Z,544.00
2022-10-12T06:15:36.127Z,552.00
2022-10-12T06:16:36.108Z,564.00
2022-10-12T06:17:36.096Z,576.00
2022-10-12T06:18:36.084Z,588.00
2022-10-12T06:19:36.076Z,612.00
2022-10-12T06:20:36.057Z,636.00
2022-10-12T06:21:36.046Z,672.00
2022-10-12T06:22:36.156Z,696.00
2022-10-12T06:23:36.022Z,728.00
2022-10-12T06:24:36.033Z,752.00
2022-10-12T06:25:35.993Z,780.00
2022-10-12T06:26:35.981Z,812.00
2022-10-12T06:27:35.960Z,848.00
2022-10-12T06:28:35.987Z,900.00
2022-10-12T06:29:35.934Z,944.00
2022-10-12T06:30:35.919Z,956.00
2022-10-12T06:31:35.913Z,952.00
2022-10-12T06:32:36.077Z,956.00
2022-10-12T06:33:35.883Z,980.00
2022-10-12T06:34:35.866Z,1004.00
2022-10-12T06:35:35.852Z,1036.00
2022-10-12T06:36:35.843Z,1060.00
2022-10-12T06:37:49.442Z,1064.00
2022-10-12T06:38:36.829Z,1072.00
2022-10-12T06:39:35.800Z,1080.00
2022-10-12T06:40:35.827Z,1084.00
2022-10-12T06:41:35.768Z,1084.00
2022-10-12T06:42:36.108Z,1084.00
2022-10-12T06:43:35.742Z,1084.00
2022-10-12T06:44:35.731Z,1084.00
2022-10-12T06:45:35.717Z,1088.00
2022-10-12T06:46:35.699Z,1116.00
2022-10-12T06:47:35.695Z,1148.00
2022-10-12T06:48:35.671Z,1172.00
2022-10-12T06:49:35.701Z,1188.00
2022-10-12T06:50:35.644Z,1196.00
2022-10-12T06:51:35.632Z,1192.00
2022-10-12T06:52:35.904Z,1200.00
2022-10-12T06:53:35.604Z,1228.00
2022-10-12T06:54:35.583Z,1272.00
2022-10-12T06:55:35.574Z,1304.00
2022-10-12T06:56:35.579Z,1348.00
2022-10-12T06:57:35.547Z,1408.00
2022-10-12T06:58:35.532Z,1472.00
2022-10-12T06:59:35.532Z,1532.00
2022-10-12T07:00:35.508Z,1584.00
2022-10-12T07:01:35.561Z,1644.00
2022-10-12T07:02:35.753Z,1712.00
2022-10-12T07:03:35.460Z,1772.00
2022-10-12T07:04:35.446Z,1832.00
2022-10-12T07:05:35.437Z,1892.00
2022-10-12T07:06:35.425Z,1940.00
2022-10-12T07:07:35.409Z,2000.00
2022-10-12T07:08:35.396Z,2080.00
2022-10-12T07:09:35.386Z,2168.00
2022-10-12T07:10:35.368Z,2276.00
2022-10-12T07:11:35.360Z,2396.00
2022-10-12T07:12:35.507Z,2484.00
2022-10-12T07:13:35.328Z,2544.00
2022-10-12T07:14:35.315Z,2592.00
2022-10-12T07:15:35.298Z,2632.00
2022-10-12T07:16:35.278Z,2660.00
2022-10-12T07:17:35.469Z,2684.00
2022-10-12T07:18:35.255Z,2716.00
2022-10-12T07:19:35.247Z,2744.00
2022-10-12T07:20:35.229Z,2768.00
2022-10-12T07:21:35.215Z,2800.00
2022-10-12T07:22:35.206Z,2836.00
2022-10-12T07:23:35.198Z,2860.00
2022-10-12T07:24:35.175Z,2852.00
2022-10-12T07:25:35.163Z,2820.00
2022-10-12T07:26:35.152Z,2780.00
2022-10-12T07:27:35.384Z,2728.00
2022-10-12T07:28:35.215Z,2672.00
2022-10-12T07:29:35.112Z,2620.00
2022-10-12T07:30:35.097Z,2576.00
2022-10-12T07:31:35.079Z,2576.00
2022-10-12T07:32:35.062Z,2588.00
2022-10-12T07:33:35.052Z,2576.00
2022-10-12T07:34:35.034Z,2548.00
2022-10-12T07:35:35.118Z,2552.00
2022-10-12T07:36:57.493Z,2584.00
2022-10-12T07:37:36.172Z,2632.00
2022-10-12T07:38:34.986Z,2688.00
2022-10-12T07:39:34.993Z,2732.00
2022-10-12T07:40:34.954Z,2756.00
2022-10-12T07:41:34.942Z,2804.00
2022-10-12T07:42:34.927Z,2884.00
2022-10-12T07:43:34.922Z,3004.00
2022-10-12T07:44:34.931Z,3144.00
2022-10-12T07:45:34.888Z,3316.00
2022-10-12T07:46:34.873Z,3484.00
2022-10-12T07:47:34.868Z,3616.00
2022-10-12T07:48:34.848Z,3676.00
2022-10-12T07:49:34.844Z,3708.00
2022-10-12T07:50:34.826Z,3760.00
2022-10-12T07:51:34.810Z,3864.00
2022-10-12T07:52:34.796Z,3988.00
2022-10-12T07:53:34.807Z,4136.00
2022-10-12T07:54:34.782Z,4288.00
2022-10-12T07:55:34.754Z,4388.00
2022-10-12T07:56:34.745Z,4424.00
2022-10-12T07:57:34.727Z,4448.00
2022-10-12T07:58:34.726Z,4472.00
2022-10-12T07:59:34.701Z,4424.00
2022-10-12T08:00:34.707Z,4372.00
2022-10-12T08:01:34.771Z,4384.00
2022-10-12T08:02:34.655Z,4424.00
2022-10-12T08:03:34.654Z,4488.00
2022-10-12T08:04:34.633Z,4624.00
2022-10-12T08:05:34.626Z,4724.00
2022-10-12T08:06:34.605Z,4868.00
2022-10-12T08:07:34.592Z,4968.00
2022-10-12T08:08:34.573Z,4976.00
2022-10-12T08:09:34.564Z,4824.00
2022-10-12T08:10:34.547Z,4696.00
2022-10-12T08:11:34.540Z,4716.00
2022-10-12T08:12:34.523Z,4768.00
2022-10-12T08:13:34.512Z,4808.00
2022-10-12T08:14:34.543Z,4944.00
2022-10-12T08:15:34.485Z,5176.00
2022-10-12T08:16:34.505Z,5428.00
2022-10-12T08:17:34.458Z,5700.00
2022-10-12T08:18:34.441Z,5892.00
2022-10-12T08:19:35.410Z,6064.00
2022-10-12T08:20:34.410Z,6144.00
2022-10-12T08:21:34.398Z,6056.00
2022-10-12T08:22:34.386Z,5936.00
2022-10-12T08:23:34.371Z,5840.00
2022-10-12T08:24:34.355Z,5760.00
2022-10-12T08:25:34.343Z,5700.00
2022-10-12T08:26:34.328Z,5824.00
2022-10-12T08:27:34.323Z,5980.00
2022-10-12T08:28:34.396Z,6108.00
2022-10-12T08:29:34.294Z,6200.00
2022-10-12T08:30:34.282Z,6280.00
2022-10-12T08:31:34.272Z,6424.00
2022-10-12T08:32:34.321Z,6504.00
2022-10-12T08:33:34.247Z,6504.00
2022-10-12T08:34:34.226Z,6448.00
2022-10-12T08:35:34.211Z,6408.00
2022-10-12T08:36:34.197Z,6320.00
2022-10-12T08:37:34.184Z,6236.00
2022-10-12T08:38:34.166Z,6100.00
2022-10-12T08:39:34.158Z,6060.00
2022-10-12T08:40:34.141Z,6108.00
2022-10-12T08:41:34.129Z,6008.00
2022-10-12T08:42:34.121Z,5984.00
2022-10-12T08:43:34.205Z,5980.00
2022-10-12T08:44:34.088Z,5952.00
2022-10-12T08:45:34.078Z,5916.00
2022-10-12T08:46:34.059Z,5920.00
2022-10-12T08:47:34.050Z,5960.00
2022-10-12T08:48:34.058Z,5884.00
2022-10-12T08:49:34.022Z,5704.00
2022-10-12T08:50:34.009Z,5636.00
2022-10-12T08:51:34.008Z,5572.00
2022-10-12T08:52:33.978Z,5524.00
2022-10-12T08:53:33.970Z,5516.00
2022-10-12T08:54:33.959Z,5556.00
2022-10-12T08:55:33.944Z,5580.00
2022-10-12T08:56:33.929Z,5552.00
2022-10-12T08:57:33.917Z,5416.00
2022-10-12T08:58:33.902Z,5304.00
2022-10-12T08:59:33.897Z,5292.00
2022-10-12T09:01:33.958Z,5076.00
2022-10-12T09:02:33.850Z,5000.00
2022-10-12T09:03:33.837Z,4908.00
2022-10-12T09:04:33.864Z,4864.00
2022-10-12T09:05:33.811Z,4896.00
2022-10-12T09:06:33.793Z,4896.00
2022-10-12T09:07:33.833Z,4852.00
2022-10-12T09:08:33.770Z,4888.00
2022-10-12T09:09:33.762Z,4952.00
2022-10-12T09:10:33.736Z,4904.00
2022-10-12T09:11:33.738Z,4780.00
2022-10-12T09:12:33.714Z,4692.00
2022-10-12T09:13:33.702Z,4584.00
2022-10-12T09:14:33.687Z,4504.00
2022-10-12T09:15:33.672Z,4464.00
2022-10-12T09:16:33.657Z,4516.00
2022-10-12T09:17:33.645Z,4540.00
2022-10-12T09:18:38.262Z,4612.00
2022-10-12T09:19:34.644Z,4688.00
2022-10-12T09:20:33.623Z,4772.00
2022-10-12T09:21:33.594Z,4900.00
2022-10-12T09:22:33.577Z,4976.00
2022-10-12T09:23:33.571Z,4940.00
2022-10-12T09:24:33.557Z,4948.00
2022-10-12T09:25:33.543Z,5028.00
2022-10-12T09:26:33.526Z,5076.00
2022-10-12T09:27:33.512Z,5080.00
2022-10-12T09:28:33.714Z,5104.00
2022-10-12T09:29:33.491Z,5184.00
2022-10-12T09:30:33.474Z,5252.00
2022-10-12T09:31:33.458Z,5160.00
2022-10-12T09:32:33.440Z,5064.00
2022-10-12T09:33:33.431Z,5072.00
2022-10-12T09:34:33.417Z,5208.00
2022-10-12T09:35:33.409Z,5284.00
2022-10-12T09:36:33.414Z,5236.00
2022-10-12T09:37:33.383Z,5196.00
2022-10-12T09:38:33.363Z,5344.00
2022-10-12T09:39:33.355Z,5504.00
2022-10-12T09:40:33.339Z,5632.00
2022-10-12T09:41:33.328Z,5888.00
2022-10-12T09:42:33.304Z,6040.00
2022-10-12T09:43:33.301Z,6228.00
2022-10-12T09:44:33.285Z,6384.00
2022-10-12T09:45:33.272Z,6564.00
2022-10-12T09:46:33.599Z,6828.00
2022-10-12T09:47:33.248Z,7116.00
2022-10-12T09:48:33.226Z,7352.00
2022-10-12T09:49:33.215Z,7620.00
2022-10-12T09:50:33.199Z,7780.00
2022-10-12T09:51:33.186Z,7820.00
2022-10-12T09:52:33.211Z,7756.00
2022-10-12T09:53:33.162Z,7960.00
2022-10-12T09:54:33.214Z,8116.00
2022-10-12T09:55:33.137Z,8136.00
2022-10-12T09:56:33.117Z,7940.00
2022-10-12T09:57:33.108Z,7672.00
2022-10-12T09:58:33.086Z,7552.00
2022-10-12T09:59:33.077Z,7408.00
2022-10-12T10:00:33.058Z,7160.00
2022-10-12T10:01:33.098Z,6936.00
2022-10-12T10:02:33.036Z,6732.00
2022-10-12T10:03:33.026Z,6536.00
2022-10-12T10:04:33.004Z,6476.00
2022-10-12T10:05:33.010Z,6368.00
2022-10-12T10:06:32.983Z,6180.00
2022-10-12T10:07:32.973Z,6060.00
2022-10-12T10:08:32.975Z,6008.00
2022-10-12T10:09:32.947Z,6120.00
2022-10-12T10:10:32.923Z,6184.00
2022-10-12T10:11:32.914Z,6200.00
2022-10-12T10:12:32.919Z,6200.00
2022-10-12T10:13:32.890Z,6184.00
2022-10-12T10:14:32.868Z,6156.00
2022-10-12T10:15:32.861Z,6212.00
2022-10-12T10:16:32.861Z,6304.00
2022-10-12T10:17:32.831Z,6444.00
2022-10-12T10:18:32.822Z,6556.00
2022-10-12T10:19:32.800Z,6620.00
2022-10-12T10:20:32.792Z,6684.00
2022-10-12T10:21:32.778Z,6688.00
2022-10-12T10:22:32.763Z,6716.00
2022-10-12T10:23:32.748Z,6748.00
2022-10-12T10:24:32.756Z,6796.00
2022-10-12T10:25:32.720Z,6860.00
2022-10-12T10:26:32.712Z,7000.00
2022-10-12T10:27:32.693Z,7156.00
2022-10-12T10:28:32.730Z,7284.00
2022-10-12T10:29:32.673Z,7368.00
2022-10-12T10:30:37.997Z,7456.00
2022-10-12T10:31:33.665Z,7608.00
2022-10-12T10:32:32.636Z,7760.00
2022-10-12T10:33:32.612Z,7964.00
2022-10-12T10:34:32.601Z,8104.00
2022-10-12T10:35:32.587Z,8204.00
2022-10-12T10:36:32.578Z,8368.00
2022-10-12T10:37:32.560Z,8528.00
2022-10-12T10:38:32.550Z,8476.00
2022-10-12T10:39:32.526Z,8428.00
2022-10-12T10:40:32.546Z,8356.00
2022-10-12T10:41:32.504Z,8204.00
2022-10-12T10:42:32.495Z,8024.00
2022-10-12T10:43:32.474Z,7908.00
2022-10-12T10:44:32.547Z,7872.00
2022-10-12T10:45:32.511Z,7824.00
2022-10-12T10:46:32.439Z,7856.00
2022-10-12T10:47:32.619Z,8000.00
2022-10-12T10:48:32.409Z,8128.00
2022-10-12T10:49:32.393Z,8212.00
2022-10-12T10:50:32.387Z,8164.00
2022-10-12T10:51:32.363Z,8100.00
2022-10-12T10:52:32.351Z,8160.00
2022-10-12T10:53:32.338Z,8180.00
2022-10-12T10:54:32.334Z,7968.00
2022-10-12T10:55:32.308Z,7676.00
2022-10-12T10:56:32.322Z,7604.00
2022-10-12T10:57:32.281Z,7604.00
2022-10-12T10:58:32.296Z,7580.00
2022-10-12T10:59:32.269Z,7544.00
2022-10-12T11:00:40.767Z,7644.00
2022-10-12T11:01:33.338Z,7736.00
2022-10-12T11:02:32.226Z,7836.00
2022-10-12T11:03:32.208Z,7868.00
2022-10-12T11:04:32.198Z,7792.00
2022-10-12T11:05:32.179Z,7576.00
2022-10-12T11:06:32.172Z,7360.00
2022-10-12T11:07:32.150Z,7084.00
2022-10-12T11:08:32.138Z,6896.00
2022-10-12T11:09:32.121Z,6772.00
2022-10-12T11:10:32.111Z,6608.00
2022-10-12T11:11:32.092Z,6504.00
2022-10-12T11:12:32.105Z,6576.00
2022-10-12T11:13:32.071Z,6608.00
2022-10-12T11:14:32.057Z,6616.00
2022-10-12T11:15:32.047Z,6688.00
2022-10-12T11:16:32.041Z,6824.00
2022-10-12T11:17:32.021Z,6924.00
2022-10-12T11:18:32.018Z,7000.00
2022-10-12T11:19:31.989Z,7084.00
2022-10-12T11:20:31.977Z,7112.00
2022-10-12T11:21:31.982Z,7188.00
2022-10-12T11:22:31.964Z,7284.00
2022-10-12T11:23:31.934Z,7240.00
2022-10-12T11:24:31.925Z,7140.00
2022-10-12T11:25:31.906Z,7136.00
2022-10-12T11:26:31.897Z,7152.00
2022-10-12T11:27:31.879Z,7268.00
2022-10-12T11:28:31.953Z,7396.00
2022-10-12T11:29:31.852Z,7528.00
2022-10-12T11:30:31.842Z,7600.00
2022-10-12T11:31:31.830Z,7648.00
2022-10-12T11:32:31.817Z,7660.00
2022-10-12T11:33:31.797Z,7748.00
2022-10-12T11:34:31.795Z,7972.00
2022-10-12T11:35:31.774Z,8064.00
2022-10-12T11:36:31.767Z,7920.00
2022-10-12T11:37:31.745Z,7712.00
2022-10-12T11:38:31.736Z,7616.00
2022-10-12T11:39:31.720Z,7612.00
2022-10-12T11:40:55.771Z,7584.00
2022-10-12T11:41:36.369Z,7536.00
2022-10-12T11:42:31.791Z,7508.00
2022-10-12T11:43:31.664Z,7524.00
2022-10-12T11:44:31.680Z,7588.00
2022-10-12T11:45:31.639Z,7648.00
2022-10-12T11:46:31.631Z,7728.00
2022-10-12T11:47:31.608Z,7904.00
2022-10-12T11:48:31.597Z,8148.00
2022-10-12T11:49:31.583Z,8252.00
2022-10-12T11:50:31.581Z,8380.00
2022-10-12T11:51:31.553Z,8544.00
2022-10-12T11:52:31.543Z,8816.00
2022-10-12T11:53:31.527Z,9020.00
2022-10-12T11:54:31.515Z,9244.00
2022-10-12T11:55:31.510Z,9460.00
2022-10-12T11:56:31.493Z,9804.00
2022-10-12T11:57:31.476Z,9996.00
2022-10-12T11:58:55.895Z,10004.00
2022-10-12T11:59:32.474Z,10192.00
2022-10-12T12:00:31.585Z,10448.00
2022-10-12T12:01:31.423Z,10804.00
2022-10-12T12:02:31.413Z,11048.00
2022-10-12T12:03:31.449Z,11144.00
2022-10-12T12:04:46.772Z,11300.00
2022-10-12T12:05:32.387Z,11660.00
2022-10-12T12:06:31.356Z,11828.00
2022-10-12T12:07:31.337Z,12104.00
2022-10-12T12:08:31.333Z,12348.00
2022-10-12T12:09:31.315Z,12284.00
2022-10-12T12:10:31.296Z,12092.00
2022-10-12T12:11:31.283Z,12160.00
2022-10-12T12:12:31.276Z,12300.00
2022-10-12T12:13:31.259Z,12688.00
2022-10-12T12:14:31.250Z,12716.00
2022-10-12T12:15:31.234Z,12288.00
2022-10-12T12:16:31.246Z,11676.00
2022-10-12T12:17:32.330Z,11092.00
2022-10-12T12:18:31.202Z,10596.00
2022-10-12T12:19:31.174Z,9992.00
2022-10-12T12:20:31.164Z,9708.00
2022-10-12T12:21:31.148Z,9624.00
2022-10-12T12:22:31.224Z,9608.00
2022-10-12T12:23:31.126Z,10132.00
2022-10-12T12:24:31.119Z,10816.00
2022-10-12T12:25:31.116Z,11360.00
2022-10-12T12:26:31.089Z,11688.00
2022-10-12T12:27:31.069Z,12360.00
2022-10-12T12:28:31.163Z,13012.00
2022-10-12T12:29:31.043Z,13504.00
2022-10-12T12:30:31.039Z,13516.00
2022-10-12T12:31:31.021Z,14268.00
2022-10-12T12:32:31.173Z,13828.00
2022-10-12T12:33:31.003Z,13468.00
2022-10-12T12:34:30.981Z,13144.00
2022-10-12T12:35:30.966Z,12924.00
2022-10-12T12:36:30.954Z,13084.00
2022-10-12T12:37:30.940Z,12916.00